Time;durP1;ratioP1;P1;durP2;ratioP2;P2;SDS_P1;SDS_P2;PMS_P1;PMS_P2;Temp;Humidity;BMP_temperature;BMP_pressure;BME280_temperature;BME280_humidity;BME280_pressure;Samples;Min_cycle;Max_cycle;Signal;HPM_P1;HPM_P2
2021/10/22 00:01:33;;;;;;;;;;;10.40;99.90;;;;;;20907560;28;20024;-78
2021/10/22 00:11:35;;;;;;;;;;;10.20;99.90;;;;;;20917523;28;19927;-77
2021/10/22 00:21:36;;;;;;;;;;;10.20;99.90;;;;;;20912206;28;19917;-77
2021/10/22 00:31:36;;;;;;;;;;;10.30;99.90;;;;;;20920546;28;20058;-77
2021/10/22 00:41:39;;;;;;;;;;;10.20;99.90;;;;;;20920429;28;19978;-78
2021/10/22 00:51:40;;;;;;;;;;;10.10;99.90;;;;;;20919458;28;19916;-78
2021/10/22 01:01:41;;;;;;;;;;;10.10;99.90;;;;;;20918317;28;19975;-77
2021/10/22 01:11:41;;;;;;;;;;;10.10;99.90;;;;;;20920810;28;20480;-78
2021/10/22 01:21:44;;;;;;;;;;;10.00;99.90;;;;;;20923549;28;19959;-78
2021/10/22 01:31:44;;;;;;;;;;;9.90;99.90;;;;;;20921885;28;19924;-79
2021/10/22 01:41:45;;;;;;;;;;;9.90;99.90;;;;;;20937443;28;19913;-78
2021/10/22 01:51:46;;;;;;;;;;;9.90;99.90;;;;;;20939304;28;19917;-79
2021/10/22 02:01:46;;;;;;;;;;;9.80;99.90;;;;;;20923637;28;19919;-79
2021/10/22 02:11:47;;;;;;;;;;;9.80;99.90;;;;;;20924155;28;19921;-79
2021/10/22 02:21:48;;;;;;;;;;;9.80;99.90;;;;;;20923366;28;19919;-79
2021/10/22 02:31:49;;;;;;;;;;;9.70;99.90;;;;;;20925102;28;19917;-79
2021/10/22 02:41:49;;;;;;;;;;;9.70;99.90;;;;;;20920489;28;20371;-79
2021/10/22 02:51:50;;;;;;;;;;;9.70;99.90;;;;;;20969565;28;19968;-78
2021/10/22 03:01:52;;;;;;;;;;;9.80;99.90;;;;;;20919006;28;19919;-79
2021/10/22 03:11:53;;;;;;;;;;;9.80;99.90;;;;;;20917872;28;19917;-79
2021/10/22 03:21:54;;;;;;;;;;;9.70;99.90;;;;;;20920428;28;19916;-80
2021/10/22 03:31:55;;;;;;;;;;;9.80;99.90;;;;;;20921775;28;19924;-79
2021/10/22 03:41:55;;;;;;;;;;;9.80;99.90;;;;;;20917958;28;19920;-79
2021/10/22 03:51:56;;;;;;;;;;;9.80;99.90;;;;;;20916596;28;20383;-78
2021/10/22 04:01:57;;;;;;;;;;;9.80;99.90;;;;;;20922336;28;19913;-78
2021/10/22 04:11:58;;;;;;;;;;;9.80;99.90;;;;;;20929823;28;19960;-80
2021/10/22 04:21:59;;;;;;;;;;;9.80;99.90;;;;;;20930757;28;19913;-79
2021/10/22 04:32:00;;;;;;;;;;;9.80;99.90;;;;;;20928237;28;19917;-78
2021/10/22 04:42:01;;;;;;;;;;;9.80;99.90;;;;;;20941630;28;19917;-80
2021/10/22 04:52:01;;;;;;;;;;;9.80;99.90;;;;;;20928861;28;20007;-80
2021/10/22 05:02:02;;;;;;;;;;;9.60;99.90;;;;;;20925859;28;19913;-81
2021/10/22 05:12:06;;;;;;;;;;;9.40;99.90;;;;;;20924600;28;20003;-78
2021/10/22 05:22:06;;;;;;;;;;;9.10;99.90;;;;;;20925890;28;19913;-80
2021/10/22 05:32:07;;;;;;;;;;;9.00;99.90;;;;;;20924070;28;19943;-81
2021/10/22 05:42:08;;;;;;;;;;;8.80;99.90;;;;;;20926316;28;20413;-79
2021/10/22 05:52:09;;;;;;;;;;;8.50;99.90;;;;;;20926198;28;19923;-79
2021/10/22 06:02:09;;;;;;;;;;;8.30;99.90;;;;;;20927322;28;20314;-80
2021/10/22 06:12:10;;;;;;;;;;;8.10;99.90;;;;;;20926692;28;20379;-79
2021/10/22 06:22:21;;;;;;;;;;;8.00;99.90;;;;;;20926501;28;19920;-79
2021/10/22 06:32:22;;;;;;;;;;;7.80;99.90;;;;;;20934747;28;20192;-79
2021/10/22 06:42:22;;;;;;;;;;;7.70;99.90;;;;;;20925405;28;19973;-80
2021/10/22 06:52:23;;;;;;;;;;;7.70;99.90;;;;;;20924409;28;19924;-79
2021/10/22 07:02:24;;;;;;;;;;;7.60;99.90;;;;;;20924069;28;20018;-79
2021/10/22 07:12:24;;;;;;;;;;;7.80;99.90;;;;;;20905704;28;19921;-79
2021/10/22 07:22:31;;;;;;;;;;;8.00;99.90;;;;;;20921516;28;19912;-80
2021/10/22 07:32:32;;;;;;;;;;;8.00;99.90;;;;;;20903959;28;20372;-79
2021/10/22 07:42:36;;;;;;;;;;;7.90;99.90;;;;;;20939113;28;19913;-78
2021/10/22 07:52:37;;;;;;;;;;;8.60;99.90;;;;;;20937506;28;19916;-78
2021/10/22 08:02:38;;;;;;;;;;;9.00;99.90;;;;;;20932862;28;19923;-78
2021/10/22 08:12:39;;;;;;;;;;;9.70;99.90;;;;;;20935404;28;19917;-78
2021/10/22 08:22:40;;;;;;;;;;;8.80;99.90;;;;;;20931316;28;19913;-80
2021/10/22 08:32:41;;;;;;;;;;;9.40;99.90;;;;;;20931148;28;19920;-79
2021/10/22 08:42:43;;;;;;;;;;;9.80;99.90;;;;;;20931803;28;19967;-79
2021/10/22 08:52:44;;;;;;;;;;;10.30;99.90;;;;;;20929285;28;20397;-79
2021/10/22 09:02:47;;;;;;;;;;;10.20;99.90;;;;;;20924458;28;19913;-79
2021/10/22 09:12:51;;;;;;;;;;;9.90;99.90;;;;;;20918895;28;19917;-78
2021/10/22 09:23:02;;;;;;;;;;;9.90;99.90;;;;;;20913772;28;20020;-77
2021/10/22 09:33:07;;;;;;;;;;;10.10;99.90;;;;;;20913747;28;19924;-78
2021/10/22 09:43:11;;;;;;;;;;;10.00;99.90;;;;;;20913567;28;19912;-78
2021/10/22 09:53:40;;;;;;;;;;;9.90;99.90;;;;;;20911811;28;20358;-77
2021/10/22 10:03:42;;;;;;;;;;;9.90;99.90;;;;;;20898566;28;19920;-77
2021/10/22 10:13:42;;;;;;;;;;;10.10;99.90;;;;;;20847274;28;1848528;-78
2021/10/22 10:23:44;;;;;;;;;;;10.10;99.90;;;;;;20912767;28;19920;-77
2021/10/22 10:33:44;;;;;;;;;;;10.00;99.90;;;;;;20913390;28;19923;-77
2021/10/22 10:43:45;;;;;;;;;;;10.00;99.90;;;;;;20913731;28;19964;-78
2021/10/22 10:53:46;;;;;;;;;;;10.40;99.90;;;;;;20912196;28;19916;-77
2021/10/22 11:03:47;;;;;;;;;;;10.50;99.90;;;;;;20912995;28;19968;-77
2021/10/22 11:13:49;;;;;;;;;;;11.50;99.90;;;;;;20911701;28;19917;-78
2021/10/22 11:23:50;;;;;;;;;;;11.40;99.90;;;;;;20911551;28;20004;-78
2021/10/22 11:33:51;;;;;;;;;;;12.70;99.90;;;;;;20910710;28;19963;-78
2021/10/22 11:44:08;;;;;;;;;;;13.20;99.90;;;;;;20913682;28;19917;-77
2021/10/22 11:54:10;;;;;;;;;;;13.30;99.90;;;;;;20917164;28;19960;-77
2021/10/22 12:04:24;;;;;;;;;;;13.70;99.90;;;;;;20897059;28;19916;-77
2021/10/22 12:14:31;;;;;;;;;;;13.50;99.90;;;;;;20887416;28;19931;-77
2021/10/22 12:24:48;;;;;;;;;;;12.50;99.90;;;;;;20876546;28;19917;-77
2021/10/22 12:34:52;;;;;;;;;;;12.70;99.90;;;;;;20898794;28;20344;-78
2021/10/22 12:45:12;;;;;;;;;;;13.80;99.90;;;;;;20901064;28;19913;-78
2021/10/22 12:55:20;;;;;;;;;;;13.70;99.90;;;;;;20903094;28;19921;-78
2021/10/22 13:05:23;;;;;;;;;;;13.90;99.90;;;;;;20916458;28;19913;-79
2021/10/22 13:25:45;;;;;;;;;;;14.00;99.90;;;;;;21665517;22;19928;-75
2021/10/22 13:35:45;;;;;;;;;;;14.00;99.90;;;;;;20912266;22;19932;-80
2021/10/22 13:45:46;;;;;;;;;;;14.50;99.90;;;;;;20900967;28;19979;-79
2021/10/22 13:55:48;;;;;;;;;;;14.70;99.90;;;;;;20900620;28;19922;-80
2021/10/22 14:05:49;;;;;;;;;;;14.30;99.90;;;;;;20856541;28;19917;-81
2021/10/22 14:36:19;;;;;;;;;;;14.90;99.90;;;;;;20753406;28;19921;-80
2021/10/22 14:56:21;;;;;;;;;;;15.10;99.90;;;;;;20839055;28;20025;-79
2021/10/22 15:06:22;;;;;;;;;;;13.90;99.90;;;;;;20834447;28;19924;-79
2021/10/22 15:16:24;;;;;;;;;;;14.10;99.90;;;;;;20811187;28;19921;-81
2021/10/22 15:26:24;;;;;;;;;;;15.10;99.90;;;;;;20814603;28;19917;-77
2021/10/22 15:36:25;;;;;;;;;;;14.20;99.90;;;;;;20801978;28;19928;-77
2021/10/22 15:46:26;;;;;;;;;;;13.70;99.90;;;;;;20821016;28;20457;-78
2021/10/22 15:56:27;;;;;;;;;;;12.70;99.90;;;;;;20870799;28;19921;-77
2021/10/22 16:06:30;;;;;;;;;;;12.20;99.90;;;;;;20893078;28;20462;-77
2021/10/22 16:26:31;;;;;;;;;;;11.00;99.90;;;;;;20895353;28;19928;-78
2021/10/22 16:36:32;;;;;;;;;;;10.40;99.90;;;;;;20903079;28;19943;-78
2021/10/22 16:46:33;;;;;;;;;;;9.50;99.90;;;;;;20881956;28;19917;-78
2021/10/22 16:56:33;;;;;;;;;;;8.70;99.90;;;;;;20891728;28;19925;-77
2021/10/22 17:06:34;;;;;;;;;;;8.10;99.90;;;;;;20878230;28;19921;-77
2021/10/22 17:16:35;;;;;;;;;;;7.50;99.90;;;;;;20880307;28;19942;-78
2021/10/22 17:26:37;;;;;;;;;;;7.40;99.90;;;;;;20877798;28;19924;-77
2021/10/22 17:36:37;;;;;;;;;;;7.40;99.90;;;;;;20762958;28;20487;-78
2021/10/22 17:46:41;;;;;;;;;;;7.00;99.90;;;;;;20716013;28;19932;-77
2021/10/22 17:56:42;;;;;;;;;;;6.50;99.90;;;;;;20722114;28;19925;-77
2021/10/22 18:06:43;;;;;;;;;;;6.30;99.90;;;;;;20816925;28;20438;-77
2021/10/22 18:16:48;;;;;;;;;;;5.90;99.90;;;;;;20812180;28;19925;-78
2021/10/22 18:26:49;;;;;;;;;;;6.00;99.90;;;;;;20903457;28;19920;-77
2021/10/22 18:36:51;;;;;;;;;;;5.80;99.90;;;;;;20896794;28;20110;-78
2021/10/22 18:46:51;;;;;;;;;;;6.00;99.90;;;;;;20890439;28;20390;-77
2021/10/22 18:56:53;;;;;;;;;;;5.80;99.90;;;;;;20880172;28;20016;-78
2021/10/22 19:06:54;;;;;;;;;;;5.70;99.90;;;;;;20814145;28;19924;-78
2021/10/22 19:16:56;;;;;;;;;;;5.40;99.90;;;;;;20768844;28;20393;-78
2021/10/22 19:26:56;;;;;;;;;;;6.00;99.90;;;;;;20881950;28;19978;-75
2021/10/22 19:36:57;;;;;;;;;;;6.00;99.90;;;;;;20885886;28;19920;-78
2021/10/22 19:46:58;;;;;;;;;;;6.00;99.90;;;;;;20875994;28;19996;-78
2021/10/22 19:56:58;;;;;;;;;;;5.90;99.90;;;;;;20874987;28;20485;-78
2021/10/22 20:06:59;;;;;;;;;;;5.70;99.90;;;;;;20802361;28;19924;-78
2021/10/22 20:17:00;;;;;;;;;;;5.10;99.90;;;;;;20807953;28;19917;-77
2021/10/22 20:27:01;;;;;;;;;;;4.70;99.90;;;;;;20782644;28;19936;-77
2021/10/22 20:37:02;;;;;;;;;;;4.70;99.90;;;;;;20784521;28;19944;-76
2021/10/22 20:47:06;;;;;;;;;;;4.60;99.90;;;;;;20816102;28;19917;-76
2021/10/22 21:07:13;;;;;;;;;;;3.80;99.90;;;;;;20818632;28;20409;-76
2021/10/22 21:17:14;;;;;;;;;;;4.10;99.90;;;;;;20816507;28;19925;-76
2021/10/22 21:27:15;;;;;;;;;;;3.50;99.90;;;;;;20820942;28;19917;-77
2021/10/22 21:37:15;;;;;;;;;;;3.40;99.90;;;;;;20827491;28;20007;-77
2021/10/22 21:47:16;;;;;;;;;;;3.60;99.90;;;;;;20799544;28;19999;-77
2021/10/22 21:57:17;;;;;;;;;;;3.30;99.90;;;;;;20827549;28;20420;-78
2021/10/22 22:07:19;;;;;;;;;;;3.20;99.90;;;;;;20828321;28;20395;-76
2021/10/22 22:17:20;;;;;;;;;;;2.70;99.90;;;;;;20821778;28;19921;-77
2021/10/22 22:27:20;;;;;;;;;;;2.60;99.90;;;;;;20792664;28;19967;-77
2021/10/22 22:37:21;;;;;;;;;;;2.60;99.90;;;;;;20806118;28;19917;-77
2021/10/22 22:47:22;;;;;;;;;;;2.50;99.90;;;;;;20841424;28;19917;-77
2021/10/22 22:57:23;;;;;;;;;;;2.50;99.90;;;;;;20843679;28;19917;-77
2021/10/22 23:07:23;;;;;;;;;;;2.30;99.90;;;;;;20844188;28;19971;-78
2021/10/22 23:17:24;;;;;;;;;;;2.30;99.90;;;;;;20849069;28;19921;-77
2021/10/22 23:27:25;;;;;;;;;;;2.20;99.90;;;;;;20850601;28;19936;-77
2021/10/22 23:37:26;;;;;;;;;;;2.10;99.90;;;;;;20911412;23;19931;-74
2021/10/22 23:47:26;;;;;;;;;;;2.00;99.90;;;;;;20873075;28;20454;-74
2021/10/22 23:57:27;;;;;;;;;;;2.00;99.90;;;;;;20888929;28;19920;-74
